sensor_id;sensor_type;location;lat;lon;timestamp;P1;durP1;ratioP1;P2;durP2;ratioP2
63394;SDS011;49531;-34.520;150.798;2023-04-25T00:02:24;6.50;;;2.20;;
63394;SDS011;49531;-34.520;150.798;2023-04-25T00:04:51;7.72;;;2.47;;
63394;SDS011;49531;-34.520;150.798;2023-04-25T00:07:19;4.82;;;1.98;;
63394;SDS011;49531;-34.520;150.798;2023-04-25T00:09:46;6.22;;;2.20;;
63394;SDS011;49531;-34.520;150.798;2023-04-25T00:12:14;6.40;;;2.10;;
63394;SDS011;49531;-34.520;150.798;2023-04-25T00:14:41;5.93;;;2.10;;
63394;SDS011;49531;-34.520;150.798;2023-04-25T00:17:09;7.35;;;2.20;;
63394;SDS011;49531;-34.520;150.798;2023-04-25T00:19:36;6.63;;;2.30;;
63394;SDS011;49531;-34.520;150.798;2023-04-25T00:22:04;11.68;;;2.38;;
63394;SDS011;49531;-34.520;150.798;2023-04-25T00:24:31;5.30;;;2.03;;
63394;SDS011;49531;-34.520;150.798;2023-04-25T00:26:58;6.53;;;2.40;;
63394;SDS011;49531;-34.520;150.798;2023-04-25T00:29:25;5.85;;;2.25;;
63394;SDS011;49531;-34.520;150.798;2023-04-25T00:31:52;7.28;;;2.00;;
63394;SDS011;49531;-34.520;150.798;2023-04-25T00:34:19;7.78;;;2.40;;
63394;SDS011;49531;-34.520;150.798;2023-04-25T00:36:46;6.25;;;2.63;;
63394;SDS011;49531;-34.520;150.798;2023-04-25T00:39:14;6.43;;;2.67;;
63394;SDS011;49531;-34.520;150.798;2023-04-25T00:41:42;7.03;;;2.75;;
63394;SDS011;49531;-34.520;150.798;2023-04-25T00:44:10;5.05;;;2.60;;
63394;SDS011;49531;-34.520;150.798;2023-04-25T00:46:39;7.88;;;2.78;;
63394;SDS011;49531;-34.520;150.798;2023-04-25T00:49:06;6.80;;;2.65;;
63394;SDS011;49531;-34.520;150.798;2023-04-25T00:51:33;7.30;;;2.92;;
63394;SDS011;49531;-34.520;150.798;2023-04-25T00:54:01;7.20;;;3.22;;
63394;SDS011;49531;-34.520;150.798;2023-04-25T00:56:28;8.43;;;3.08;;
63394;SDS011;49531;-34.520;150.798;2023-04-25T00:58:56;5.97;;;2.67;;
63394;SDS011;49531;-34.520;150.798;2023-04-25T01:01:23;7.10;;;2.90;;
63394;SDS011;49531;-34.520;150.798;2023-04-25T01:03:50;5.78;;;3.00;;
63394;SDS011;49531;-34.520;150.798;2023-04-25T01:06:20;6.93;;;2.80;;
63394;SDS011;49531;-34.520;150.798;2023-04-25T01:08:48;7.10;;;2.72;;
63394;SDS011;49531;-34.520;150.798;2023-04-25T01:11:15;7.95;;;2.88;;
63394;SDS011;49531;-34.520;150.798;2023-04-25T01:13:43;5.35;;;2.90;;
63394;SDS011;49531;-34.520;150.798;2023-04-25T01:16:11;7.40;;;3.30;;
63394;SDS011;49531;-34.520;150.798;2023-04-25T01:18:39;7.70;;;3.35;;
63394;SDS011;49531;-34.520;150.798;2023-04-25T01:21:08;7.30;;;3.08;;
63394;SDS011;49531;-34.520;150.798;2023-04-25T01:23:37;7.90;;;3.20;;
63394;SDS011;49531;-34.520;150.798;2023-04-25T01:26:06;5.15;;;2.85;;
63394;SDS011;49531;-34.520;150.798;2023-04-25T01:28:35;6.13;;;3.00;;
63394;SDS011;49531;-34.520;150.798;2023-04-25T01:31:03;8.00;;;3.20;;
63394;SDS011;49531;-34.520;150.798;2023-04-25T01:33:31;6.20;;;2.95;;
63394;SDS011;49531;-34.520;150.798;2023-04-25T01:35:58;7.00;;;3.42;;
63394;SDS011;49531;-34.520;150.798;2023-04-25T01:38:25;7.20;;;3.03;;
63394;SDS011;49531;-34.520;150.798;2023-04-25T01:40:53;5.93;;;2.80;;
63394;SDS011;49531;-34.520;150.798;2023-04-25T01:43:21;6.47;;;3.10;;
63394;SDS011;49531;-34.520;150.798;2023-04-25T01:45:49;7.88;;;3.10;;
63394;SDS011;49531;-34.520;150.798;2023-04-25T01:48:17;8.25;;;3.28;;
63394;SDS011;49531;-34.520;150.798;2023-04-25T01:50:44;7.15;;;3.50;;
63394;SDS011;49531;-34.520;150.798;2023-04-25T01:53:12;5.60;;;3.20;;
63394;SDS011;49531;-34.520;150.798;2023-04-25T01:55:40;6.75;;;3.20;;
63394;SDS011;49531;-34.520;150.798;2023-04-25T01:58:07;5.15;;;2.92;;
63394;SDS011;49531;-34.520;150.798;2023-04-25T02:00:35;7.57;;;3.20;;
63394;SDS011;49531;-34.520;150.798;2023-04-25T02:03:04;7.72;;;3.20;;
63394;SDS011;49531;-34.520;150.798;2023-04-25T02:05:35;6.53;;;3.10;;
63394;SDS011;49531;-34.520;150.798;2023-04-25T02:08:04;6.47;;;2.88;;
63394;SDS011;49531;-34.520;150.798;2023-04-25T02:10:33;5.25;;;3.10;;
63394;SDS011;49531;-34.520;150.798;2023-04-25T02:13:00;5.93;;;3.08;;
63394;SDS011;49531;-34.520;150.798;2023-04-25T02:15:28;6.45;;;3.20;;
63394;SDS011;49531;-34.520;150.798;2023-04-25T02:17:56;7.88;;;2.95;;
63394;SDS011;49531;-34.520;150.798;2023-04-25T02:20:25;6.25;;;3.08;;
63394;SDS011;49531;-34.520;150.798;2023-04-25T02:22:54;6.35;;;3.08;;
63394;SDS011;49531;-34.520;150.798;2023-04-25T02:25:22;6.30;;;3.00;;
63394;SDS011;49531;-34.520;150.798;2023-04-25T02:27:50;6.03;;;2.90;;
63394;SDS011;49531;-34.520;150.798;2023-04-25T02:30:17;6.07;;;2.80;;
63394;SDS011;49531;-34.520;150.798;2023-04-25T02:32:44;7.80;;;3.20;;
63394;SDS011;49531;-34.520;150.798;2023-04-25T02:35:12;7.38;;;3.03;;
63394;SDS011;49531;-34.520;150.798;2023-04-25T02:37:39;7.07;;;2.92;;
63394;SDS011;49531;-34.520;150.798;2023-04-25T02:40:07;6.97;;;2.90;;
63394;SDS011;49531;-34.520;150.798;2023-04-25T02:42:34;6.57;;;2.75;;
63394;SDS011;49531;-34.520;150.798;2023-04-25T02:45:02;5.68;;;2.80;;
63394;SDS011;49531;-34.520;150.798;2023-04-25T02:47:30;6.65;;;2.85;;
63394;SDS011;49531;-34.520;150.798;2023-04-25T02:49:57;6.97;;;3.00;;
63394;SDS011;49531;-34.520;150.798;2023-04-25T02:52:25;6.50;;;2.80;;
63394;SDS011;49531;-34.520;150.798;2023-04-25T02:54:52;4.82;;;2.50;;
63394;SDS011;49531;-34.520;150.798;2023-04-25T02:57:19;4.70;;;2.70;;
63394;SDS011;49531;-34.520;150.798;2023-04-25T02:59:46;5.85;;;2.70;;
63394;SDS011;49531;-34.520;150.798;2023-04-25T03:02:13;9.43;;;2.80;;
63394;SDS011;49531;-34.520;150.798;2023-04-25T03:04:41;6.50;;;2.70;;
63394;SDS011;49531;-34.520;150.798;2023-04-25T03:07:08;6.80;;;2.55;;
63394;SDS011;49531;-34.520;150.798;2023-04-25T03:09:35;6.45;;;2.55;;
63394;SDS011;49531;-34.520;150.798;2023-04-25T03:12:03;5.93;;;2.60;;
63394;SDS011;49531;-34.520;150.798;2023-04-25T03:14:30;6.95;;;2.47;;
63394;SDS011;49531;-34.520;150.798;2023-04-25T03:16:57;9.13;;;2.78;;
63394;SDS011;49531;-34.520;150.798;2023-04-25T03:19:25;6.53;;;2.80;;
63394;SDS011;49531;-34.520;150.798;2023-04-25T03:21:52;6.15;;;2.70;;
63394;SDS011;49531;-34.520;150.798;2023-04-25T03:24:20;7.97;;;2.85;;
63394;SDS011;49531;-34.520;150.798;2023-04-25T03:26:47;6.18;;;2.40;;
63394;SDS011;49531;-34.520;150.798;2023-04-25T03:29:14;4.55;;;2.50;;
63394;SDS011;49531;-34.520;150.798;2023-04-25T03:31:41;7.88;;;3.10;;
63394;SDS011;49531;-34.520;150.798;2023-04-25T03:34:08;7.30;;;3.28;;
63394;SDS011;49531;-34.520;150.798;2023-04-25T03:36:36;7.68;;;3.60;;
63394;SDS011;49531;-34.520;150.798;2023-04-25T03:39:03;9.27;;;3.30;;
63394;SDS011;49531;-34.520;150.798;2023-04-25T03:41:30;7.68;;;3.15;;
63394;SDS011;49531;-34.520;150.798;2023-04-25T03:43:57;9.38;;;3.45;;
63394;SDS011;49531;-34.520;150.798;2023-04-25T03:46:24;7.72;;;3.60;;
63394;SDS011;49531;-34.520;150.798;2023-04-25T03:48:51;10.38;;;3.50;;
63394;SDS011;49531;-34.520;150.798;2023-04-25T03:51:19;10.68;;;3.55;;
63394;SDS011;49531;-34.520;150.798;2023-04-25T03:53:47;8.80;;;3.50;;
63394;SDS011;49531;-34.520;150.798;2023-04-25T03:56:14;7.03;;;3.30;;
63394;SDS011;49531;-34.520;150.798;2023-04-25T03:58:41;7.07;;;3.42;;
63394;SDS011;49531;-34.520;150.798;2023-04-25T04:01:08;8.10;;;3.50;;
63394;SDS011;49531;-34.520;150.798;2023-04-25T04:03:36;7.03;;;3.55;;
63394;SDS011;49531;-34.520;150.798;2023-04-25T04:06:03;7.80;;;3.70;;
63394;SDS011;49531;-34.520;150.798;2023-04-25T04:08:32;6.72;;;3.30;;
63394;SDS011;49531;-34.520;150.798;2023-04-25T04:10:59;7.20;;;3.47;;
63394;SDS011;49531;-34.520;150.798;2023-04-25T04:13:27;8.40;;;3.55;;
63394;SDS011;49531;-34.520;150.798;2023-04-25T04:15:54;6.15;;;3.15;;
63394;SDS011;49531;-34.520;150.798;2023-04-25T04:18:22;10.57;;;3.85;;
63394;SDS011;49531;-34.520;150.798;2023-04-25T04:20:50;9.20;;;3.90;;
63394;SDS011;49531;-34.520;150.798;2023-04-25T04:23:18;7.78;;;3.55;;
63394;SDS011;49531;-34.520;150.798;2023-04-25T04:25:48;7.03;;;3.55;;
63394;SDS011;49531;-34.520;150.798;2023-04-25T04:28:15;9.90;;;3.78;;
63394;SDS011;49531;-34.520;150.798;2023-04-25T04:30:43;6.40;;;3.55;;
63394;SDS011;49531;-34.520;150.798;2023-04-25T04:33:12;5.72;;;3.50;;
63394;SDS011;49531;-34.520;150.798;2023-04-25T04:35:41;7.50;;;3.90;;
63394;SDS011;49531;-34.520;150.798;2023-04-25T04:38:08;6.03;;;3.75;;
63394;SDS011;49531;-34.520;150.798;2023-04-25T04:40:36;7.50;;;3.92;;
63394;SDS011;49531;-34.520;150.798;2023-04-25T04:43:03;7.10;;;3.88;;
63394;SDS011;49531;-34.520;150.798;2023-04-25T04:45:31;7.63;;;4.00;;
63394;SDS011;49531;-34.520;150.798;2023-04-25T04:47:59;7.30;;;3.90;;
63394;SDS011;49531;-34.520;150.798;2023-04-25T04:50:26;8.57;;;3.90;;
63394;SDS011;49531;-34.520;150.798;2023-04-25T04:52:53;8.35;;;3.78;;
63394;SDS011;49531;-34.520;150.798;2023-04-25T04:55:21;8.27;;;3.80;;
63394;SDS011;49531;-34.520;150.798;2023-04-25T04:57:49;7.45;;;3.58;;
63394;SDS011;49531;-34.520;150.798;2023-04-25T05:00:16;8.77;;;3.70;;
63394;SDS011;49531;-34.520;150.798;2023-04-25T05:02:43;7.43;;;3.55;;
63394;SDS011;49531;-34.520;150.798;2023-04-25T05:05:11;6.20;;;3.38;;
63394;SDS011;49531;-34.520;150.798;2023-04-25T05:07:38;8.80;;;3.45;;
63394;SDS011;49531;-34.520;150.798;2023-04-25T05:10:05;7.60;;;3.50;;
63394;SDS011;49531;-34.520;150.798;2023-04-25T05:12:33;9.10;;;3.50;;
63394;SDS011;49531;-34.520;150.798;2023-04-25T05:15:00;8.32;;;3.33;;
63394;SDS011;49531;-34.520;150.798;2023-04-25T05:17:27;8.05;;;3.40;;
63394;SDS011;49531;-34.520;150.798;2023-04-25T05:19:54;7.10;;;3.40;;
63394;SDS011;49531;-34.520;150.798;2023-04-25T05:22:22;8.25;;;3.42;;
63394;SDS011;49531;-34.520;150.798;2023-04-25T05:24:49;8.18;;;3.20;;
63394;SDS011;49531;-34.520;150.798;2023-04-25T05:27:18;7.95;;;3.25;;
63394;SDS011;49531;-34.520;150.798;2023-04-25T05:29:46;7.40;;;3.15;;
63394;SDS011;49531;-34.520;150.798;2023-04-25T05:32:13;7.15;;;3.53;;
63394;SDS011;49531;-34.520;150.798;2023-04-25T05:34:40;8.50;;;3.35;;
63394;SDS011;49531;-34.520;150.798;2023-04-25T05:37:08;7.57;;;3.17;;
63394;SDS011;49531;-34.520;150.798;2023-04-25T05:39:35;5.75;;;2.97;;
63394;SDS011;49531;-34.520;150.798;2023-04-25T05:42:02;6.93;;;3.40;;
63394;SDS011;49531;-34.520;150.798;2023-04-25T05:44:30;7.30;;;3.05;;
63394;SDS011;49531;-34.520;150.798;2023-04-25T05:46:57;7.38;;;3.25;;
63394;SDS011;49531;-34.520;150.798;2023-04-25T05:49:24;7.38;;;2.97;;
63394;SDS011;49531;-34.520;150.798;2023-04-25T05:51:51;8.25;;;3.00;;
63394;SDS011;49531;-34.520;150.798;2023-04-25T05:54:18;10.18;;;3.30;;
63394;SDS011;49531;-34.520;150.798;2023-04-25T05:56:46;7.10;;;3.10;;
63394;SDS011;49531;-34.520;150.798;2023-04-25T05:59:13;7.38;;;3.00;;
63394;SDS011;49531;-34.520;150.798;2023-04-25T06:01:41;7.97;;;3.00;;
63394;SDS011;49531;-34.520;150.798;2023-04-25T06:04:08;6.10;;;2.67;;
63394;SDS011;49531;-34.520;150.798;2023-04-25T06:06:35;7.35;;;3.00;;
63394;SDS011;49531;-34.520;150.798;2023-04-25T06:09:02;6.82;;;2.72;;
63394;SDS011;49531;-34.520;150.798;2023-04-25T06:11:30;6.75;;;2.95;;
63394;SDS011;49531;-34.520;150.798;2023-04-25T06:13:57;6.57;;;2.85;;
63394;SDS011;49531;-34.520;150.798;2023-04-25T06:16:24;7.53;;;2.90;;
63394;SDS011;49531;-34.520;150.798;2023-04-25T06:18:51;10.85;;;2.80;;
63394;SDS011;49531;-34.520;150.798;2023-04-25T06:21:18;7.32;;;2.80;;
63394;SDS011;49531;-34.520;150.798;2023-04-25T06:23:46;9.02;;;2.80;;
63394;SDS011;49531;-34.520;150.798;2023-04-25T06:26:13;7.32;;;2.70;;
63394;SDS011;49531;-34.520;150.798;2023-04-25T06:28:40;8.48;;;2.72;;
63394;SDS011;49531;-34.520;150.798;2023-04-25T06:31:08;9.38;;;2.85;;
63394;SDS011;49531;-34.520;150.798;2023-04-25T06:33:35;8.02;;;2.75;;
63394;SDS011;49531;-34.520;150.798;2023-04-25T06:36:02;8.90;;;2.80;;
63394;SDS011;49531;-34.520;150.798;2023-04-25T06:38:30;6.43;;;2.42;;
63394;SDS011;49531;-34.520;150.798;2023-04-25T06:40:57;7.28;;;2.65;;
63394;SDS011;49531;-34.520;150.798;2023-04-25T06:43:24;7.30;;;2.72;;
63394;SDS011;49531;-34.520;150.798;2023-04-25T06:45:51;9.13;;;2.78;;
63394;SDS011;49531;-34.520;150.798;2023-04-25T06:48:18;9.73;;;3.13;;
63394;SDS011;49531;-34.520;150.798;2023-04-25T06:50:46;9.75;;;2.88;;
63394;SDS011;49531;-34.520;150.798;2023-04-25T06:53:13;9.20;;;3.00;;
63394;SDS011;49531;-34.520;150.798;2023-04-25T06:55:40;8.48;;;2.50;;
63394;SDS011;49531;-34.520;150.798;2023-04-25T06:58:07;7.03;;;2.70;;
63394;SDS011;49531;-34.520;150.798;2023-04-25T07:00:34;7.60;;;2.67;;
63394;SDS011;49531;-34.520;150.798;2023-04-25T07:03:02;8.68;;;2.70;;
63394;SDS011;49531;-34.520;150.798;2023-04-25T07:05:30;6.82;;;2.47;;
63394;SDS011;49531;-34.520;150.798;2023-04-25T07:07:57;6.57;;;2.35;;
63394;SDS011;49531;-34.520;150.798;2023-04-25T07:10:24;8.73;;;2.72;;
63394;SDS011;49531;-34.520;150.798;2023-04-25T07:12:51;8.02;;;2.60;;
63394;SDS011;49531;-34.520;150.798;2023-04-25T07:15:19;9.10;;;2.70;;
63394;SDS011;49531;-34.520;150.798;2023-04-25T07:17:46;8.48;;;2.30;;
63394;SDS011;49531;-34.520;150.798;2023-04-25T07:20:13;8.00;;;2.60;;
63394;SDS011;49531;-34.520;150.798;2023-04-25T07:22:41;8.65;;;2.40;;
63394;SDS011;49531;-34.520;150.798;2023-04-25T07:25:09;9.93;;;2.90;;
63394;SDS011;49531;-34.520;150.798;2023-04-25T07:27:36;7.57;;;2.40;;
63394;SDS011;49531;-34.520;150.798;2023-04-25T07:30:04;10.57;;;2.75;;
63394;SDS011;49531;-34.520;150.798;2023-04-25T07:32:32;7.80;;;2.30;;
63394;SDS011;49531;-34.520;150.798;2023-04-25T07:35:00;8.25;;;2.40;;
63394;SDS011;49531;-34.520;150.798;2023-04-25T07:37:28;10.13;;;2.50;;
63394;SDS011;49531;-34.520;150.798;2023-04-25T07:39:55;9.00;;;2.65;;
63394;SDS011;49531;-34.520;150.798;2023-04-25T07:42:22;6.97;;;2.58;;
63394;SDS011;49531;-34.520;150.798;2023-04-25T07:44:49;6.78;;;2.40;;
63394;SDS011;49531;-34.520;150.798;2023-04-25T07:47:17;7.13;;;2.40;;
63394;SDS011;49531;-34.520;150.798;2023-04-25T07:49:45;7.50;;;2.33;;
63394;SDS011;49531;-34.520;150.798;2023-04-25T07:52:12;6.38;;;2.20;;
63394;SDS011;49531;-34.520;150.798;2023-04-25T07:54:40;7.03;;;2.63;;
63394;SDS011;49531;-34.520;150.798;2023-04-25T07:57:07;6.57;;;2.40;;
63394;SDS011;49531;-34.520;150.798;2023-04-25T07:59:34;10.50;;;2.63;;
63394;SDS011;49531;-34.520;150.798;2023-04-25T08:02:01;5.80;;;2.40;;
63394;SDS011;49531;-34.520;150.798;2023-04-25T08:04:28;7.18;;;2.60;;
63394;SDS011;49531;-34.520;150.798;2023-04-25T08:06:56;10.35;;;2.90;;
63394;SDS011;49531;-34.520;150.798;2023-04-25T08:09:23;7.25;;;2.58;;
63394;SDS011;49531;-34.520;150.798;2023-04-25T08:11:50;9.02;;;2.55;;
63394;SDS011;49531;-34.520;150.798;2023-04-25T08:14:20;7.50;;;2.25;;
63394;SDS011;49531;-34.520;150.798;2023-04-25T08:16:47;7.72;;;2.55;;
63394;SDS011;49531;-34.520;150.798;2023-04-25T08:19:14;7.82;;;2.65;;
63394;SDS011;49531;-34.520;150.798;2023-04-25T08:21:41;8.95;;;2.40;;
63394;SDS011;49531;-34.520;150.798;2023-04-25T08:24:08;7.15;;;2.60;;
63394;SDS011;49531;-34.520;150.798;2023-04-25T08:26:35;7.75;;;2.45;;
63394;SDS011;49531;-34.520;150.798;2023-04-25T08:29:04;5.88;;;2.40;;
63394;SDS011;49531;-34.520;150.798;2023-04-25T08:31:31;7.43;;;2.55;;
63394;SDS011;49531;-34.520;150.798;2023-04-25T08:33:58;6.43;;;2.47;;
63394;SDS011;49531;-34.520;150.798;2023-04-25T08:36:26;6.18;;;2.38;;
63394;SDS011;49531;-34.520;150.798;2023-04-25T08:38:54;6.28;;;2.40;;
63394;SDS011;49531;-34.520;150.798;2023-04-25T08:41:21;6.20;;;2.40;;
63394;SDS011;49531;-34.520;150.798;2023-04-25T08:43:49;7.57;;;2.63;;
63394;SDS011;49531;-34.520;150.798;2023-04-25T08:46:17;6.30;;;2.40;;
63394;SDS011;49531;-34.520;150.798;2023-04-25T08:48:45;5.43;;;2.30;;
63394;SDS011;49531;-34.520;150.798;2023-04-25T08:51:17;7.85;;;2.60;;
63394;SDS011;49531;-34.520;150.798;2023-04-25T08:53:53;8.55;;;2.55;;
63394;SDS011;49531;-34.520;150.798;2023-04-25T08:56:22;8.23;;;2.53;;
63394;SDS011;49531;-34.520;150.798;2023-04-25T08:58:50;8.00;;;3.05;;
63394;SDS011;49531;-34.520;150.798;2023-04-25T09:01:17;7.45;;;2.25;;
63394;SDS011;49531;-34.520;150.798;2023-04-25T09:03:45;5.63;;;2.28;;
63394;SDS011;49531;-34.520;150.798;2023-04-25T09:06:12;6.25;;;2.45;;
63394;SDS011;49531;-34.520;150.798;2023-04-25T09:08:41;6.15;;;2.47;;
63394;SDS011;49531;-34.520;150.798;2023-04-25T09:11:09;9.40;;;2.65;;
63394;SDS011;49531;-34.520;150.798;2023-04-25T09:13:37;8.02;;;2.38;;
63394;SDS011;49531;-34.520;150.798;2023-04-25T09:16:04;8.82;;;2.65;;
63394;SDS011;49531;-34.520;150.798;2023-04-25T09:18:32;7.30;;;2.25;;
63394;SDS011;49531;-34.520;150.798;2023-04-25T09:21:05;7.93;;;2.35;;
63394;SDS011;49531;-34.520;150.798;2023-04-25T09:23:39;5.43;;;2.50;;
63394;SDS011;49531;-34.520;150.798;2023-04-25T09:26:07;5.93;;;2.25;;
63394;SDS011;49531;-34.520;150.798;2023-04-25T09:28:35;6.78;;;2.40;;
63394;SDS011;49531;-34.520;150.798;2023-04-25T09:31:03;6.20;;;2.38;;
63394;SDS011;49531;-34.520;150.798;2023-04-25T09:33:31;7.35;;;2.40;;
63394;SDS011;49531;-34.520;150.798;2023-04-25T09:36:06;6.25;;;2.38;;
63394;SDS011;49531;-34.520;150.798;2023-04-25T09:38:41;4.88;;;2.22;;
63394;SDS011;49531;-34.520;150.798;2023-04-25T09:41:10;6.70;;;2.30;;
63394;SDS011;49531;-34.520;150.798;2023-04-25T09:43:38;5.72;;;2.28;;
63394;SDS011;49531;-34.520;150.798;2023-04-25T09:46:08;10.73;;;2.70;;
63394;SDS011;49531;-34.520;150.798;2023-04-25T09:48:37;6.05;;;2.50;;
63394;SDS011;49531;-34.520;150.798;2023-04-25T09:51:08;6.43;;;2.40;;
63394;SDS011;49531;-34.520;150.798;2023-04-25T09:53:40;4.25;;;2.20;;
63394;SDS011;49531;-34.520;150.798;2023-04-25T09:56:09;6.15;;;2.50;;
63394;SDS011;49531;-34.520;150.798;2023-04-25T09:58:41;4.45;;;2.20;;
63394;SDS011;49531;-34.520;150.798;2023-04-25T10:01:09;7.43;;;2.53;;
63394;SDS011;49531;-34.520;150.798;2023-04-25T10:03:37;4.80;;;2.30;;
63394;SDS011;49531;-34.520;150.798;2023-04-25T10:06:07;5.15;;;2.45;;
63394;SDS011;49531;-34.520;150.798;2023-04-25T10:08:38;6.90;;;2.40;;
63394;SDS011;49531;-34.520;150.798;2023-04-25T10:11:07;5.43;;;2.25;;
63394;SDS011;49531;-34.520;150.798;2023-04-25T10:13:35;4.38;;;2.17;;
63394;SDS011;49531;-34.520;150.798;2023-04-25T10:16:03;6.05;;;2.28;;
63394;SDS011;49531;-34.520;150.798;2023-04-25T10:18:32;8.48;;;2.45;;
63394;SDS011;49531;-34.520;150.798;2023-04-25T10:21:00;5.90;;;2.50;;
63394;SDS011;49531;-34.520;150.798;2023-04-25T10:23:29;6.38;;;2.50;;
63394;SDS011;49531;-34.520;150.798;2023-04-25T10:25:59;5.05;;;2.40;;
63394;SDS011;49531;-34.520;150.798;2023-04-25T10:28:27;5.43;;;2.20;;
63394;SDS011;49531;-34.520;150.798;2023-04-25T10:31:00;6.72;;;2.58;;
63394;SDS011;49531;-34.520;150.798;2023-04-25T10:33:32;8.02;;;2.60;;
63394;SDS011;49531;-34.520;150.798;2023-04-25T10:36:11;5.72;;;2.20;;
63394;SDS011;49531;-34.520;150.798;2023-04-25T10:38:42;7.15;;;2.40;;
63394;SDS011;49531;-34.520;150.798;2023-04-25T10:41:10;6.07;;;2.45;;
63394;SDS011;49531;-34.520;150.798;2023-04-25T10:43:41;8.05;;;2.60;;
63394;SDS011;49531;-34.520;150.798;2023-04-25T10:46:16;5.30;;;2.30;;
63394;SDS011;49531;-34.520;150.798;2023-04-25T10:48:46;6.43;;;2.42;;
63394;SDS011;49531;-34.520;150.798;2023-04-25T10:51:26;5.22;;;2.20;;
63394;SDS011;49531;-34.520;150.798;2023-04-25T10:53:58;5.80;;;2.45;;
63394;SDS011;49531;-34.520;150.798;2023-04-25T10:56:29;5.43;;;2.38;;
63394;SDS011;49531;-34.520;150.798;2023-04-25T10:59:02;5.03;;;2.17;;
63394;SDS011;49531;-34.520;150.798;2023-04-25T11:01:36;5.40;;;2.20;;
63394;SDS011;49531;-34.520;150.798;2023-04-25T11:04:05;6.03;;;2.38;;
63394;SDS011;49531;-34.520;150.798;2023-04-25T11:06:53;5.70;;;2.45;;
63394;SDS011;49531;-34.520;150.798;2023-04-25T11:09:30;5.43;;;2.28;;
63394;SDS011;49531;-34.520;150.798;2023-04-25T11:11:59;5.30;;;2.10;;
63394;SDS011;49531;-34.520;150.798;2023-04-25T11:14:27;6.28;;;2.17;;
63394;SDS011;49531;-34.520;150.798;2023-04-25T11:16:55;6.07;;;2.28;;
63394;SDS011;49531;-34.520;150.798;2023-04-25T11:19:24;6.13;;;2.60;;
63394;SDS011;49531;-34.520;150.798;2023-04-25T11:21:56;8.73;;;2.42;;
63394;SDS011;49531;-34.520;150.798;2023-04-25T11:24:27;6.28;;;2.17;;
63394;SDS011;49531;-34.520;150.798;2023-04-25T11:26:56;4.78;;;2.30;;
63394;SDS011;49531;-34.520;150.798;2023-04-25T11:29:26;5.43;;;2.30;;
63394;SDS011;49531;-34.520;150.798;2023-04-25T11:31:54;7.30;;;2.40;;
63394;SDS011;49531;-34.520;150.798;2023-04-25T11:34:27;4.40;;;2.03;;
63394;SDS011;49531;-34.520;150.798;2023-04-25T11:36:56;5.93;;;2.20;;
63394;SDS011;49531;-34.520;150.798;2023-04-25T11:39:24;5.95;;;2.30;;
63394;SDS011;49531;-34.520;150.798;2023-04-25T11:41:52;4.90;;;2.22;;
63394;SDS011;49531;-34.520;150.798;2023-04-25T11:44:21;6.18;;;2.25;;
63394;SDS011;49531;-34.520;150.798;2023-04-25T11:46:49;5.18;;;2.22;;
63394;SDS011;49531;-34.520;150.798;2023-04-25T11:49:16;5.97;;;2.20;;
63394;SDS011;49531;-34.520;150.798;2023-04-25T11:51:45;6.63;;;2.10;;
63394;SDS011;49531;-34.520;150.798;2023-04-25T11:54:14;4.90;;;2.17;;
63394;SDS011;49531;-34.520;150.798;2023-04-25T11:56:42;4.38;;;2.00;;
63394;SDS011;49531;-34.520;150.798;2023-04-25T11:59:11;5.82;;;2.47;;
63394;SDS011;49531;-34.520;150.798;2023-04-25T12:01:40;5.75;;;2.10;;
63394;SDS011;49531;-34.520;150.798;2023-04-25T12:04:19;4.47;;;2.05;;
63394;SDS011;49531;-34.520;150.798;2023-04-25T12:06:48;6.22;;;2.20;;
63394;SDS011;49531;-34.520;150.798;2023-04-25T12:09:18;3.83;;;2.00;;
63394;SDS011;49531;-34.520;150.798;2023-04-25T12:11:53;4.32;;;2.10;;
63394;SDS011;49531;-34.520;150.798;2023-04-25T12:14:26;5.80;;;2.20;;
63394;SDS011;49531;-34.520;150.798;2023-04-25T12:19:23;5.18;;;2.10;;
63394;SDS011;49531;-34.520;150.798;2023-04-25T12:21:51;4.88;;;2.10;;
63394;SDS011;49531;-34.520;150.798;2023-04-25T12:24:23;4.95;;;2.10;;
63394;SDS011;49531;-34.520;150.798;2023-04-25T12:26:59;6.53;;;2.42;;
63394;SDS011;49531;-34.520;150.798;2023-04-25T12:29:30;4.22;;;2.13;;
63394;SDS011;49531;-34.520;150.798;2023-04-25T12:31:58;4.63;;;1.98;;
63394;SDS011;49531;-34.520;150.798;2023-04-25T12:34:27;5.07;;;1.95;;
63394;SDS011;49531;-34.520;150.798;2023-04-25T12:36:54;5.68;;;2.08;;
63394;SDS011;49531;-34.520;150.798;2023-04-25T12:39:23;4.47;;;1.95;;
63394;SDS011;49531;-34.520;150.798;2023-04-25T12:41:51;4.78;;;2.15;;
63394;SDS011;49531;-34.520;150.798;2023-04-25T12:44:20;6.32;;;2.22;;
63394;SDS011;49531;-34.520;150.798;2023-04-25T12:46:47;6.43;;;1.83;;
63394;SDS011;49531;-34.520;150.798;2023-04-25T12:49:16;6.05;;;2.20;;
63394;SDS011;49531;-34.520;150.798;2023-04-25T12:51:43;5.55;;;2.20;;
63394;SDS011;49531;-34.520;150.798;2023-04-25T12:54:10;9.52;;;2.30;;
63394;SDS011;49531;-34.520;150.798;2023-04-25T12:56:40;6.03;;;2.17;;
63394;SDS011;49531;-34.520;150.798;2023-04-25T12:59:08;4.82;;;1.80;;
63394;SDS011;49531;-34.520;150.798;2023-04-25T13:01:35;7.18;;;2.10;;
63394;SDS011;49531;-34.520;150.798;2023-04-25T13:04:02;6.75;;;1.98;;
63394;SDS011;49531;-34.520;150.798;2023-04-25T13:06:30;7.07;;;2.08;;
63394;SDS011;49531;-34.520;150.798;2023-04-25T13:08:57;5.18;;;1.83;;
63394;SDS011;49531;-34.520;150.798;2023-04-25T13:11:24;6.32;;;2.00;;
63394;SDS011;49531;-34.520;150.798;2023-04-25T13:13:51;5.72;;;2.10;;
63394;SDS011;49531;-34.520;150.798;2023-04-25T13:16:18;6.82;;;2.17;;
63394;SDS011;49531;-34.520;150.798;2023-04-25T13:18:46;5.13;;;1.85;;
63394;SDS011;49531;-34.520;150.798;2023-04-25T13:21:14;6.93;;;2.00;;
63394;SDS011;49531;-34.520;150.798;2023-04-25T13:23:42;4.82;;;1.90;;
63394;SDS011;49531;-34.520;150.798;2023-04-25T13:26:10;7.00;;;2.40;;
63394;SDS011;49531;-34.520;150.798;2023-04-25T13:28:37;7.32;;;2.10;;
63394;SDS011;49531;-34.520;150.798;2023-04-25T13:31:06;7.10;;;2.03;;
63394;SDS011;49531;-34.520;150.798;2023-04-25T13:33:33;4.03;;;1.60;;
63394;SDS011;49531;-34.520;150.798;2023-04-25T13:36:00;8.38;;;1.80;;
63394;SDS011;49531;-34.520;150.798;2023-04-25T13:38:28;6.63;;;2.08;;
63394;SDS011;49531;-34.520;150.798;2023-04-25T13:40:55;5.75;;;1.85;;
63394;SDS011;49531;-34.520;150.798;2023-04-25T13:43:22;7.72;;;2.00;;
63394;SDS011;49531;-34.520;150.798;2023-04-25T13:45:49;4.50;;;1.92;;
63394;SDS011;49531;-34.520;150.798;2023-04-25T13:48:17;6.07;;;2.00;;
63394;SDS011;49531;-34.520;150.798;2023-04-25T13:50:45;7.03;;;2.10;;
63394;SDS011;49531;-34.520;150.798;2023-04-25T13:53:13;6.05;;;1.80;;
63394;SDS011;49531;-34.520;150.798;2023-04-25T13:55:41;8.02;;;1.88;;
63394;SDS011;49531;-34.520;150.798;2023-04-25T13:58:09;4.60;;;1.90;;
63394;SDS011;49531;-34.520;150.798;2023-04-25T14:00:36;5.97;;;1.85;;
63394;SDS011;49531;-34.520;150.798;2023-04-25T14:03:05;5.38;;;2.10;;
63394;SDS011;49531;-34.520;150.798;2023-04-25T14:05:33;5.95;;;2.05;;
63394;SDS011;49531;-34.520;150.798;2023-04-25T14:08:04;4.68;;;1.83;;
63394;SDS011;49531;-34.520;150.798;2023-04-25T14:10:33;4.75;;;1.70;;
63394;SDS011;49531;-34.520;150.798;2023-04-25T14:13:01;5.97;;;1.90;;
63394;SDS011;49531;-34.520;150.798;2023-04-25T14:15:29;7.00;;;2.10;;
63394;SDS011;49531;-34.520;150.798;2023-04-25T14:17:58;4.78;;;1.55;;